Woolloomooloo — 9HA2901 — position and weather

sailwx.info

Track history (hours):
 
Tides and Currents Weather Stations Pressure Air Temp Water Temp Dewpoint Dewpoint Depression Visibility Wind Speed Wind Dir Waves Ship Positions

Woolloomooloo

Last reported at 2018-Jun-20 21:00 UTC. Time now 2018-Jun-20 21:08 UTC.
Position N 00°11' W 050°47'.

Length 225 m; draft 11.6 m.

Type: Cargo ship. MMSI: 256662000.

Date/timePositionNaut miles runAvg speedWind from/ knotsBaromVisibWave heightAir tempDewpointWater temp
2018-Jun-20 21:00N 00°11' W 050°47'713.4
2018-Jun-20 20:30N 00°10' W 050°53'815.0
2018-Jun-20 20:00N 00°05' W 050°59'510.8
2018-Jun-20 19:30S 00°01' W 051°00'816.5
2018-Jun-20 19:00S 00°09' W 051°02'612.4
2018-Jun-20 18:30S 00°15' W 051°03'714.9
2018-Jun-20 18:00S 00°21' W 051°07'714.4
2018-Jun-20 17:30S 00°25' W 051°13'1714.8
2018-Jun-20 16:22S 00°31' W 051°29'19712.5
2018-Jun-20 00:38S 02°23' W 054°11'216.4
2018-Jun-20 00:30S 02°23' W 054°13'816.0
2018-Jun-20 00:00S 02°24' W 054°21'715.1
2018-Jun-19 23:30S 02°27' W 054°28'815.2
2018-Jun-19 23:00S 02°28' W 054°35'714.3
2018-Jun-19 22:30S 02°24' W 054°41'714.0
2018-Jun-19 22:00S 02°18' W 054°45'815.8
2018-Jun-19 21:30S 02°11' W 054°48'814.3
2018-Jun-19 20:58S 02°10' W 054°56'713.9
2018-Jun-19 20:29S 02°14' W 055°01'612.6
2018-Jun-19 20:00S 02°11' W 055°07'  
2018-Jun-17 01:58S 02°03' W 055°23'5 9.1
2018-Jun-17 01:26S 02°06' W 055°20'5 8.1
2018-Jun-17 00:45S 02°08' W 055°14'2 9.2
2018-Jun-17 00:30S 02°09' W 055°12'5 9.3
2018-Jun-17 00:00S 02°09' W 055°08'4 8.8
2018-Jun-16 23:31S 02°10' W 055°03'5 9.4
2018-Jun-16 23:00S 02°11' W 054°59'5 8.3
2018-Jun-16 22:27S 02°10' W 054°54'4 8.2
2018-Jun-16 21:57S 02°10' W 054°50'4 7.8
2018-Jun-16 21:30S 02°12' W 054°47'4 8.2
2018-Jun-16 21:00S 02°16' W 054°46'4 8.9
2018-Jun-16 20:30S 02°20' W 054°45'4 8.4
2018-Jun-16 20:00S 02°24' W 054°43'5 9.8
2018-Jun-16 19:30S 02°26' W 054°39'5 9.0
2018-Jun-16 19:00S 02°28' W 054°35'5 8.9
2018-Jun-16 18:29S 02°27' W 054°30'4 9.2
2018-Jun-16 18:00S 02°26' W 054°26'5 9.5
2018-Jun-16 17:30S 02°25' W 054°21'4 8.7
2018-Jun-16 16:59S 02°24' W 054°17'4 8.2
2018-Jun-16 16:30S 02°23' W 054°13'197 7.7
2018-Jun-15 15:00S 00°32' W 051°30'5 9.1
2018-Jun-15 14:30S 00°29' W 051°27'5 9.2
2018-Jun-15 14:00S 00°25' W 051°24'6 9.4
2018-Jun-15 13:25S 00°20' W 051°21'6 9.3
2018-Jun-15 12:47S 00°15' W 051°19'3 9.1
2018-Jun-15 12:30S 00°13' W 051°17'5 9.6
2018-Jun-15 12:00S 00°09' W 051°14'5 9.5
2018-Jun-15 11:30S 00°07' W 051°10'5 8.9
2018-Jun-15 10:59S 00°04' W 051°06'4 7.6
2018-Jun-15 10:31S 00°02' W 051°04'510.4
2018-Jun-15 10:00N 00°02' W 051°00'2 1.2
2018-Jun-15 08:40N 00°03' W 050°59'0 0.1
2018-Jun-15 08:27N 00°03' W 050°59'0 0.0
2018-Jun-15 07:51N 00°03' W 050°59'0 0.1
2018-Jun-15 07:28N 00°03' W 050°59'0 0.1
2018-Jun-15 06:58N 00°03' W 050°59'0 0.0
2018-Jun-15 06:22N 00°03' W 050°59'0 0.0
2018-Jun-15 05:57N 00°03' W 050°59'0 0.0
2018-Jun-15 05:28N 00°03' W 050°59'0 0.4
2018-Jun-15 04:57N 00°03' W 050°59'0 0.1
2018-Jun-15 04:04N 00°03' W 050°59'0 0.1
2018-Jun-15 03:58N 00°03' W 050°59'0 0.0
2018-Jun-15 03:27N 00°03' W 050°59'0 0.0
2018-Jun-15 02:52N 00°03' W 050°59'0 0.0
2018-Jun-15 02:28N 00°03' W 050°59'0 0.0
2018-Jun-15 01:58N 00°03' W 050°59'0 0.0
2018-Jun-15 01:28N 00°03' W 050°59'0 0.0
2018-Jun-15 00:58N 00°03' W 050°59'0 0.0
2018-Jun-15 00:28N 00°03' W 050°59'0 0.0
2018-Jun-14 23:57N 00°03' W 050°59'0 0.0
2018-Jun-14 23:21N 00°03' W 050°59'0 0.0
2018-Jun-14 22:51N 00°03' W 050°59'0 0.0
2018-Jun-14 22:28N 00°03' W 050°59'0 0.0
2018-Jun-14 21:58N 00°03' W 050°59'0 0.0
2018-Jun-14 21:28N 00°03' W 050°59'0 0.0
2018-Jun-14 20:58N 00°03' W 050°59'0 0.2
2018-Jun-14 20:28N 00°03' W 050°59'0 0.3
2018-Jun-14 19:58N 00°03' W 050°59'0 0.1
2018-Jun-14 19:28N 00°03' W 050°59'0 0.1
2018-Jun-14 18:57N 00°03' W 050°59'0 0.0
2018-Jun-14 18:27N 00°03' W 050°59'0 0.0
2018-Jun-14 17:57N 00°03' W 050°59'0 0.0
2018-Jun-14 17:25N 00°03' W 050°59'0 0.1
2018-Jun-14 16:49N 00°03' W 050°59'0 0.5
2018-Jun-14 16:30N 00°03' W 050°59'0 0.2
2018-Jun-14 16:01N 00°03' W 050°59'0 0.0
2018-Jun-14 15:25N 00°03' W 050°59'0 0.0
2018-Jun-14 14:55N 00°03' W 050°59'0 0.0
2018-Jun-14 14:25N 00°03' W 050°59'1 2.3
2018-Jun-14 14:01N 00°02' W 050°59'6 9.3
2018-Jun-14 13:25S 00°02' W 051°03'4 9.1
2018-Jun-14 13:00S 00°04' W 051°06'0 0.1
2018-Jun-14 12:27S 00°04' W 051°06'0 0.0
2018-Jun-14 11:57S 00°04' W 051°06'0 0.1
2018-Jun-14 10:52S 00°04' W 051°06'1 2.3
2018-Jun-14 10:29S 00°03' W 051°05'2 4.8
2018-Jun-14 09:58S 00°02' W 051°04'3 5.6
2018-Jun-14 09:31N 00°00' W 051°02'4 8.0
2018-Jun-14 08:59N 00°04' W 050°60'2 2.4
2018-Jun-14 08:14N 00°04' W 050°58'0 0.2
2018-Jun-14 07:56N 00°04' W 050°58'0 0.2
2018-Jun-14 07:26N 00°04' W 050°58'0 0.1
2018-Jun-14 06:56N 00°04' W 050°58'0 0.0
2018-Jun-14 06:20N 00°04' W 050°58'0 0.0
2018-Jun-14 05:56N 00°04' W 050°58'0 0.0
2018-Jun-14 05:26N 00°04' W 050°58'0 0.0
2018-Jun-14 04:56N 00°04' W 050°58'0 0.0
2018-Jun-14 04:26N 00°04' W 050°58'0 0.3
2018-Jun-14 03:56N 00°04' W 050°58'0 0.3
2018-Jun-14 03:26N 00°04' W 050°58'0 0.1
2018-Jun-14 02:56N 00°04' W 050°58'0 0.0
2018-Jun-14 02:26N 00°04' W 050°58'0 0.2
2018-Jun-14 01:56N 00°04' W 050°58'0 0.2
2018-Jun-14 01:26N 00°04' W 050°58'0 0.0
2018-Jun-14 00:56N 00°04' W 050°58'0 0.2
2018-Jun-14 00:26N 00°04' W 050°58'0 0.0
2018-Jun-13 23:56N 00°04' W 050°58'0 0.1
2018-Jun-13 23:20N 00°04' W 050°58'0 0.0
2018-Jun-13 22:50N 00°04' W 050°58'0 0.0
2018-Jun-13 22:26N 00°04' W 050°58'0 0.0
2018-Jun-13 21:38N 00°04' W 050°58'0 0.0
2018-Jun-13 21:26N 00°04' W 050°58'0 0.0
2018-Jun-13 20:56N 00°04' W 050°58'0 0.0
2018-Jun-13 20:29N 00°04' W 050°58'0 0.0
2018-Jun-13 19:59N 00°04' W 050°58'0 0.4
2018-Jun-13 19:26N 00°04' W 050°58'0 0.1
2018-Jun-13 18:56N 00°04' W 050°58'0 0.1
2018-Jun-13 18:20N 00°04' W 050°58'0 1.5
2018-Jun-13 18:00N 00°05' W 050°58'3 5.4
2018-Jun-13 17:29N 00°07' W 050°57'510.2
2018-Jun-13 17:00N 00°10' W 050°53'612.4
2018-Jun-13 16:30N 00°11' W 050°47'1413.3
2018-Jun-13 15:26N 00°18' W 050°34'4 8.9
2018-Jun-13 14:58N 00°20' W 050°31'  
Track history (hours):
 
Tides and Currents Weather Stations Pressure Air Temp Water Temp Dewpoint Dewpoint Depression Visibility Wind Speed Wind Dir Waves Ship Positions

Woolloomooloo

Last reported at 2018-Jun-20 21:00 UTC. Time now 2018-Jun-20 21:08 UTC.
Position N 00°11' W 050°47'.

Length 225 m; draft 11.6 m.

Type: Cargo ship. MMSI: 256662000.

Date/timePositionNaut miles runAvg speedWind from/ knotsBaromVisibWave heightAir tempDewpointWater temp
2018-Jun-20 21:00N 00°11' W 050°47'713.4
2018-Jun-20 20:30N 00°10' W 050°53'815.0
2018-Jun-20 20:00N 00°05' W 050°59'510.8
2018-Jun-20 19:30S 00°01' W 051°00'816.5
2018-Jun-20 19:00S 00°09' W 051°02'612.4
2018-Jun-20 18:30S 00°15' W 051°03'714.9
2018-Jun-20 18:00S 00°21' W 051°07'714.4
2018-Jun-20 17:30S 00°25' W 051°13'1714.8
2018-Jun-20 16:22S 00°31' W 051°29'19712.5
2018-Jun-20 00:38S 02°23' W 054°11'216.4
2018-Jun-20 00:30S 02°23' W 054°13'816.0
2018-Jun-20 00:00S 02°24' W 054°21'715.1
2018-Jun-19 23:30S 02°27' W 054°28'815.2
2018-Jun-19 23:00S 02°28' W 054°35'714.3
2018-Jun-19 22:30S 02°24' W 054°41'714.0
2018-Jun-19 22:00S 02°18' W 054°45'815.8
2018-Jun-19 21:30S 02°11' W 054°48'814.3
2018-Jun-19 20:58S 02°10' W 054°56'713.9
2018-Jun-19 20:29S 02°14' W 055°01'612.6
2018-Jun-19 20:00S 02°11' W 055°07'  
2018-Jun-17 01:58S 02°03' W 055°23'5 9.1
2018-Jun-17 01:26S 02°06' W 055°20'5 8.1
2018-Jun-17 00:45S 02°08' W 055°14'2 9.2
2018-Jun-17 00:30S 02°09' W 055°12'5 9.3
2018-Jun-17 00:00S 02°09' W 055°08'4 8.8
2018-Jun-16 23:31S 02°10' W 055°03'5 9.4
2018-Jun-16 23:00S 02°11' W 054°59'5 8.3
2018-Jun-16 22:27S 02°10' W 054°54'4 8.2
2018-Jun-16 21:57S 02°10' W 054°50'4 7.8
2018-Jun-16 21:30S 02°12' W 054°47'4 8.2
2018-Jun-16 21:00S 02°16' W 054°46'4 8.9
2018-Jun-16 20:30S 02°20' W 054°45'4 8.4
2018-Jun-16 20:00S 02°24' W 054°43'5 9.8
2018-Jun-16 19:30S 02°26' W 054°39'5 9.0
2018-Jun-16 19:00S 02°28' W 054°35'5 8.9
2018-Jun-16 18:29S 02°27' W 054°30'4 9.2
2018-Jun-16 18:00S 02°26' W 054°26'5 9.5
2018-Jun-16 17:30S 02°25' W 054°21'4 8.7
2018-Jun-16 16:59S 02°24' W 054°17'4 8.2
2018-Jun-16 16:30S 02°23' W 054°13'197 7.7
2018-Jun-15 15:00S 00°32' W 051°30'5 9.1
2018-Jun-15 14:30S 00°29' W 051°27'5 9.2
2018-Jun-15 14:00S 00°25' W 051°24'6 9.4
2018-Jun-15 13:25S 00°20' W 051°21'6 9.3
2018-Jun-15 12:47S 00°15' W 051°19'3 9.1
2018-Jun-15 12:30S 00°13' W 051°17'5 9.6
2018-Jun-15 12:00S 00°09' W 051°14'5 9.5
2018-Jun-15 11:30S 00°07' W 051°10'5 8.9
2018-Jun-15 10:59S 00°04' W 051°06'4 7.6
2018-Jun-15 10:31S 00°02' W 051°04'510.4
2018-Jun-15 10:00N 00°02' W 051°00'2 1.2
2018-Jun-15 08:40N 00°03' W 050°59'0 0.1
2018-Jun-15 08:27N 00°03' W 050°59'0 0.0
2018-Jun-15 07:51N 00°03' W 050°59'0 0.1
2018-Jun-15 07:28N 00°03' W 050°59'0 0.1
2018-Jun-15 06:58N 00°03' W 050°59'0 0.0
2018-Jun-15 06:22N 00°03' W 050°59'0 0.0
2018-Jun-15 05:57N 00°03' W 050°59'0 0.0
2018-Jun-15 05:28N 00°03' W 050°59'0 0.4
2018-Jun-15 04:57N 00°03' W 050°59'0 0.1
2018-Jun-15 04:04N 00°03' W 050°59'0 0.1
2018-Jun-15 03:58N 00°03' W 050°59'0 0.0
2018-Jun-15 03:27N 00°03' W 050°59'0 0.0
2018-Jun-15 02:52N 00°03' W 050°59'0 0.0
2018-Jun-15 02:28N 00°03' W 050°59'0 0.0
2018-Jun-15 01:58N 00°03' W 050°59'0 0.0
2018-Jun-15 01:28N 00°03' W 050°59'0 0.0
2018-Jun-15 00:58N 00°03' W 050°59'0 0.0
2018-Jun-15 00:28N 00°03' W 050°59'0 0.0
2018-Jun-14 23:57N 00°03' W 050°59'0 0.0
2018-Jun-14 23:21N 00°03' W 050°59'0 0.0
2018-Jun-14 22:51N 00°03' W 050°59'0 0.0
2018-Jun-14 22:28N 00°03' W 050°59'0 0.0
2018-Jun-14 21:58N 00°03' W 050°59'0 0.0
2018-Jun-14 21:28N 00°03' W 050°59'0 0.0
2018-Jun-14 20:58N 00°03' W 050°59'0 0.2
2018-Jun-14 20:28N 00°03' W 050°59'0 0.3
2018-Jun-14 19:58N 00°03' W 050°59'0 0.1
2018-Jun-14 19:28N 00°03' W 050°59'0 0.1
2018-Jun-14 18:57N 00°03' W 050°59'0 0.0
2018-Jun-14 18:27N 00°03' W 050°59'0 0.0
2018-Jun-14 17:57N 00°03' W 050°59'0 0.0
2018-Jun-14 17:25N 00°03' W 050°59'0 0.1
2018-Jun-14 16:49N 00°03' W 050°59'0 0.5
2018-Jun-14 16:30N 00°03' W 050°59'0 0.2
2018-Jun-14 16:01N 00°03' W 050°59'0 0.0
2018-Jun-14 15:25N 00°03' W 050°59'0 0.0
2018-Jun-14 14:55N 00°03' W 050°59'0 0.0
2018-Jun-14 14:25N 00°03' W 050°59'1 2.3
2018-Jun-14 14:01N 00°02' W 050°59'6 9.3
2018-Jun-14 13:25S 00°02' W 051°03'4 9.1
2018-Jun-14 13:00S 00°04' W 051°06'0 0.1
2018-Jun-14 12:27S 00°04' W 051°06'0 0.0
2018-Jun-14 11:57S 00°04' W 051°06'0 0.1
2018-Jun-14 10:52S 00°04' W 051°06'1 2.3
2018-Jun-14 10:29S 00°03' W 051°05'2 4.8
2018-Jun-14 09:58S 00°02' W 051°04'3 5.6
2018-Jun-14 09:31N 00°00' W 051°02'4 8.0
2018-Jun-14 08:59N 00°04' W 050°60'2 2.4
2018-Jun-14 08:14N 00°04' W 050°58'0 0.2
2018-Jun-14 07:56N 00°04' W 050°58'0 0.2
2018-Jun-14 07:26N 00°04' W 050°58'0 0.1
2018-Jun-14 06:56N 00°04' W 050°58'0 0.0
2018-Jun-14 06:20N 00°04' W 050°58'0 0.0
2018-Jun-14 05:56N 00°04' W 050°58'0 0.0
2018-Jun-14 05:26N 00°04' W 050°58'0 0.0
2018-Jun-14 04:56N 00°04' W 050°58'0 0.0
2018-Jun-14 04:26N 00°04' W 050°58'0 0.3
2018-Jun-14 03:56N 00°04' W 050°58'0 0.3
2018-Jun-14 03:26N 00°04' W 050°58'0 0.1
2018-Jun-14 02:56N 00°04' W 050°58'0 0.0
2018-Jun-14 02:26N 00°04' W 050°58'0 0.2
2018-Jun-14 01:56N 00°04' W 050°58'0 0.2
2018-Jun-14 01:26N 00°04' W 050°58'0 0.0
2018-Jun-14 00:56N 00°04' W 050°58'0 0.2
2018-Jun-14 00:26N 00°04' W 050°58'0 0.0
2018-Jun-13 23:56N 00°04' W 050°58'0 0.1
2018-Jun-13 23:20N 00°04' W 050°58'0 0.0
2018-Jun-13 22:50N 00°04' W 050°58'0 0.0
2018-Jun-13 22:26N 00°04' W 050°58'0 0.0
2018-Jun-13 21:38N 00°04' W 050°58'0 0.0
2018-Jun-13 21:26N 00°04' W 050°58'0 0.0
2018-Jun-13 20:56N 00°04' W 050°58'0 0.0
2018-Jun-13 20:29N 00°04' W 050°58'0 0.0
2018-Jun-13 19:59N 00°04' W 050°58'0 0.4
2018-Jun-13 19:26N 00°04' W 050°58'0 0.1
2018-Jun-13 18:56N 00°04' W 050°58'0 0.1
2018-Jun-13 18:20N 00°04' W 050°58'0 1.5
2018-Jun-13 18:00N 00°05' W 050°58'3 5.4
2018-Jun-13 17:29N 00°07' W 050°57'510.2
2018-Jun-13 17:00N 00°10' W 050°53'612.4
2018-Jun-13 16:30N 00°11' W 050°47'1413.3
2018-Jun-13 15:26N 00°18' W 050°34'4 8.9
2018-Jun-13 14:58N 00°20' W 050°31'  

Dump ship's entire track history